sensor_id;sensor_type;location;lat;lon;timestamp;pressure;altitude;pressure_sealevel;temperature;humidity
15880;BME280;61999;51.514;14.614;2022-12-20T00:01:49;100564.72;;;-5.31;66.58
15880;BME280;61999;51.514;14.614;2022-12-20T00:04:17;100578.44;;;-5.35;66.28
15880;BME280;61999;51.514;14.614;2022-12-20T00:06:45;100575.91;;;-5.42;67.09
15880;BME280;61999;51.514;14.614;2022-12-20T00:09:13;100579.41;;;-5.56;66.69
15880;BME280;61999;51.514;14.614;2022-12-20T00:11:42;100574.25;;;-5.56;66.88
15880;BME280;61999;51.514;14.614;2022-12-20T00:14:11;100554.59;;;-5.58;67.42
15880;BME280;61999;51.514;14.614;2022-12-20T00:16:40;100558.81;;;-5.50;66.62
15880;BME280;61999;51.514;14.614;2022-12-20T00:19:10;100557.91;;;-5.38;66.21
15880;BME280;61999;51.514;14.614;2022-12-20T00:21:38;100561.31;;;-5.33;66.24
15880;BME280;61999;51.514;14.614;2022-12-20T00:24:06;100550.31;;;-5.62;65.99
15880;BME280;61999;51.514;14.614;2022-12-20T00:26:35;100552.88;;;-5.62;66.77
15880;BME280;61999;51.514;14.614;2022-12-20T00:29:04;100553.75;;;-5.66;66.94
15880;BME280;61999;51.514;14.614;2022-12-20T00:31:34;100546.16;;;-5.97;67.99
15880;BME280;61999;51.514;14.614;2022-12-20T00:34:02;100537.53;;;-5.78;67.84
15880;BME280;61999;51.514;14.614;2022-12-20T00:36:32;100553.03;;;-5.96;68.32
15880;BME280;61999;51.514;14.614;2022-12-20T00:39:00;100539.94;;;-5.45;67.74
15880;BME280;61999;51.514;14.614;2022-12-20T00:41:31;100554.69;;;-5.86;66.17
15880;BME280;61999;51.514;14.614;2022-12-20T00:44:00;100559.81;;;-5.86;66.97
15880;BME280;61999;51.514;14.614;2022-12-20T00:46:29;100548.63;;;-5.62;66.90
15880;BME280;61999;51.514;14.614;2022-12-20T00:48:59;100528.88;;;-5.54;65.97
15880;BME280;61999;51.514;14.614;2022-12-20T00:51:29;100534.66;;;-5.16;66.09
15880;BME280;61999;51.514;14.614;2022-12-20T00:53:58;100531.19;;;-5.12;64.97
15880;BME280;61999;51.514;14.614;2022-12-20T00:56:26;100527.88;;;-5.31;66.13
15880;BME280;61999;51.514;14.614;2022-12-20T00:58:56;100544.28;;;-5.52;66.25
15880;BME280;61999;51.514;14.614;2022-12-20T01:01:27;100532.25;;;-5.44;66.03
15880;BME280;61999;51.514;14.614;2022-12-20T01:03:58;100536.53;;;-5.46;65.73
15880;BME280;61999;51.514;14.614;2022-12-20T01:06:27;100533.91;;;-5.31;66.63
15880;BME280;61999;51.514;14.614;2022-12-20T01:08:56;100523.63;;;-5.37;65.74
15880;BME280;61999;51.514;14.614;2022-12-20T01:11:27;100509.81;;;-5.17;64.85
15880;BME280;61999;51.514;14.614;2022-12-20T01:14:02;100522.75;;;-5.31;65.45
15880;BME280;61999;51.514;14.614;2022-12-20T01:16:34;100516.84;;;-5.44;66.26
15880;BME280;61999;51.514;14.614;2022-12-20T01:19:05;100513.50;;;-5.58;65.53
15880;BME280;61999;51.514;14.614;2022-12-20T01:21:33;100513.53;;;-5.64;65.88
15880;BME280;61999;51.514;14.614;2022-12-20T01:24:01;100505.66;;;-5.37;66.41
15880;BME280;61999;51.514;14.614;2022-12-20T01:26:29;100509.13;;;-5.39;66.06
15880;BME280;61999;51.514;14.614;2022-12-20T01:28:59;100501.09;;;-4.98;66.28
15880;BME280;61999;51.514;14.614;2022-12-20T01:31:28;100490.50;;;-4.61;65.15
15880;BME280;61999;51.514;14.614;2022-12-20T01:33:57;100501.25;;;-5.16;64.19
15880;BME280;61999;51.514;14.614;2022-12-20T01:36:29;100509.97;;;-5.39;65.63
15880;BME280;61999;51.514;14.614;2022-12-20T01:38:59;100492.34;;;-4.75;66.09
15880;BME280;61999;51.514;14.614;2022-12-20T01:41:29;100501.94;;;-4.93;63.72
15880;BME280;61999;51.514;14.614;2022-12-20T01:44:00;100497.00;;;-5.22;65.51
15880;BME280;61999;51.514;14.614;2022-12-20T01:46:32;100503.88;;;-5.26;65.12
15880;BME280;61999;51.514;14.614;2022-12-20T01:49:05;100507.19;;;-5.10;65.24
15880;BME280;61999;51.514;14.614;2022-12-20T01:51:42;100497.94;;;-5.31;65.32
15880;BME280;61999;51.514;14.614;2022-12-20T01:54:15;100489.94;;;-4.95;65.24
15880;BME280;61999;51.514;14.614;2022-12-20T01:56:52;100488.50;;;-5.30;65.28
15880;BME280;61999;51.514;14.614;2022-12-20T01:59:24;100485.34;;;-5.81;66.86
15880;BME280;61999;51.514;14.614;2022-12-20T02:01:53;100487.91;;;-5.80;67.96
15880;BME280;61999;51.514;14.614;2022-12-20T02:04:25;100489.72;;;-6.03;68.65
15880;BME280;61999;51.514;14.614;2022-12-20T02:06:55;100484.56;;;-5.97;68.49
15880;BME280;61999;51.514;14.614;2022-12-20T02:09:23;100487.09;;;-5.91;68.87
15880;BME280;61999;51.514;14.614;2022-12-20T02:12:07;100491.44;;;-5.99;69.51
15880;BME280;61999;51.514;14.614;2022-12-20T02:14:57;100494.66;;;-5.60;68.08
15880;BME280;61999;51.514;14.614;2022-12-20T02:17:40;100492.91;;;-5.52;68.71
15880;BME280;61999;51.514;14.614;2022-12-20T02:21:07;100495.25;;;-5.20;68.11
15880;BME280;61999;51.514;14.614;2022-12-20T02:27:47;100491.94;;;-5.33;67.57
15880;BME280;61999;51.514;14.614;2022-12-20T02:30:22;100468.06;;;-5.47;67.80
15880;BME280;61999;51.514;14.614;2022-12-20T02:32:59;100471.34;;;-5.30;66.67
15880;BME280;61999;51.514;14.614;2022-12-20T02:35:31;100489.41;;;-5.39;66.98
15880;BME280;61999;51.514;14.614;2022-12-20T02:38:02;100473.09;;;-5.33;67.14
15880;BME280;61999;51.514;14.614;2022-12-20T02:40:37;100479.00;;;-5.20;66.19
15880;BME280;61999;51.514;14.614;2022-12-20T02:43:09;100461.66;;;-4.97;66.88
15880;BME280;61999;51.514;14.614;2022-12-20T02:46:02;100468.06;;;-5.50;66.32
15880;BME280;61999;51.514;14.614;2022-12-20T02:48:32;100468.09;;;-5.55;66.32
15880;BME280;61999;51.514;14.614;2022-12-20T02:51:02;100472.47;;;-5.67;66.52
15880;BME280;61999;51.514;14.614;2022-12-20T02:53:33;100461.78;;;-5.09;66.44
15880;BME280;61999;51.514;14.614;2022-12-20T02:56:10;100469.41;;;-5.00;65.09
15880;BME280;61999;51.514;14.614;2022-12-20T02:58:44;100473.53;;;-4.81;64.59
15880;BME280;61999;51.514;14.614;2022-12-20T03:01:23;100463.09;;;-4.62;64.03
15880;BME280;61999;51.514;14.614;2022-12-20T03:03:56;100465.06;;;-4.92;63.71
15880;BME280;61999;51.514;14.614;2022-12-20T03:06:24;100460.38;;;-5.53;65.94
15880;BME280;61999;51.514;14.614;2022-12-20T03:08:52;100470.72;;;-5.64;66.68
15880;BME280;61999;51.514;14.614;2022-12-20T03:11:20;100468.13;;;-5.59;67.02
15880;BME280;61999;51.514;14.614;2022-12-20T03:13:48;100461.97;;;-5.31;66.49
15880;BME280;61999;51.514;14.614;2022-12-20T03:16:18;100468.22;;;-5.81;66.46
15880;BME280;61999;51.514;14.614;2022-12-20T03:18:45;100457.84;;;-5.56;66.72
15880;BME280;61999;51.514;14.614;2022-12-20T03:21:14;100471.72;;;-5.96;67.37
15880;BME280;61999;51.514;14.614;2022-12-20T03:23:41;100465.66;;;-5.81;67.49
15880;BME280;61999;51.514;14.614;2022-12-20T03:26:09;100452.69;;;-5.58;67.35
15880;BME280;61999;51.514;14.614;2022-12-20T03:28:37;100450.00;;;-5.38;66.32
15880;BME280;61999;51.514;14.614;2022-12-20T03:31:05;100455.28;;;-5.56;66.22
15880;BME280;61999;51.514;14.614;2022-12-20T03:33:35;100461.38;;;-5.80;67.33
15880;BME280;61999;51.514;14.614;2022-12-20T03:36:03;100447.47;;;-5.44;67.45
15880;BME280;61999;51.514;14.614;2022-12-20T03:38:31;100461.13;;;-5.37;66.64
15880;BME280;61999;51.514;14.614;2022-12-20T03:40:59;100451.69;;;-5.32;66.75
15880;BME280;61999;51.514;14.614;2022-12-20T03:43:27;100445.66;;;-5.31;65.91
15880;BME280;61999;51.514;14.614;2022-12-20T03:45:55;100425.75;;;-5.06;66.64
15880;BME280;61999;51.514;14.614;2022-12-20T03:48:23;100436.41;;;-5.55;66.53
15880;BME280;61999;51.514;14.614;2022-12-20T03:50:52;100444.97;;;-5.50;66.59
15880;BME280;61999;51.514;14.614;2022-12-20T03:53:20;100433.78;;;-5.44;67.12
15880;BME280;61999;51.514;14.614;2022-12-20T03:55:48;100434.91;;;-5.87;66.97
15880;BME280;61999;51.514;14.614;2022-12-20T03:58:16;100443.22;;;-5.45;67.20
15880;BME280;61999;51.514;14.614;2022-12-20T04:00:44;100423.72;;;-5.78;67.80
15880;BME280;61999;51.514;14.614;2022-12-20T04:03:12;100428.72;;;-5.60;67.06
15880;BME280;61999;51.514;14.614;2022-12-20T04:05:40;100444.16;;;-5.60;67.00
15880;BME280;61999;51.514;14.614;2022-12-20T04:08:09;100427.69;;;-5.30;66.67
15880;BME280;61999;51.514;14.614;2022-12-20T04:10:38;100432.38;;;-4.81;66.17
15880;BME280;61999;51.514;14.614;2022-12-20T04:13:20;100432.84;;;-5.33;66.34
15880;BME280;61999;51.514;14.614;2022-12-20T04:15:48;100425.81;;;-5.12;65.91
15880;BME280;61999;51.514;14.614;2022-12-20T04:18:17;100435.75;;;-4.72;65.80
15880;BME280;61999;51.514;14.614;2022-12-20T04:20:52;100438.50;;;-4.92;65.22
15880;BME280;61999;51.514;14.614;2022-12-20T04:23:21;100441.03;;;-4.91;65.20
15880;BME280;61999;51.514;14.614;2022-12-20T04:25:49;100438.56;;;-4.98;65.58
15880;BME280;61999;51.514;14.614;2022-12-20T04:28:17;100432.50;;;-4.93;65.32
15880;BME280;61999;51.514;14.614;2022-12-20T04:30:45;100441.41;;;-5.34;65.56
15880;BME280;61999;51.514;14.614;2022-12-20T04:33:13;100439.25;;;-4.81;64.82
15880;BME280;61999;51.514;14.614;2022-12-20T04:35:41;100446.09;;;-4.78;63.93
15880;BME280;61999;51.514;14.614;2022-12-20T04:38:09;100438.81;;;-5.29;65.25
15880;BME280;61999;51.514;14.614;2022-12-20T04:40:38;100440.22;;;-4.93;65.54
15880;BME280;61999;51.514;14.614;2022-12-20T04:43:06;100429.22;;;-5.07;65.06
15880;BME280;61999;51.514;14.614;2022-12-20T04:45:34;100434.38;;;-5.12;64.88
15880;BME280;61999;51.514;14.614;2022-12-20T04:48:03;100437.53;;;-4.81;64.70
15880;BME280;61999;51.514;14.614;2022-12-20T04:50:47;100438.53;;;-4.97;64.64
15880;BME280;61999;51.514;14.614;2022-12-20T04:53:16;100444.88;;;-5.41;66.39
15880;BME280;61999;51.514;14.614;2022-12-20T04:56:04;100438.69;;;-5.15;65.72
15880;BME280;61999;51.514;14.614;2022-12-20T04:58:32;100435.91;;;-4.89;65.69
15880;BME280;61999;51.514;14.614;2022-12-20T05:01:00;100428.63;;;-5.43;66.47
15880;BME280;61999;51.514;14.614;2022-12-20T05:03:28;100414.72;;;-5.17;66.68
15880;BME280;61999;51.514;14.614;2022-12-20T05:05:56;100419.06;;;-5.26;65.71
15880;BME280;61999;51.514;14.614;2022-12-20T05:08:25;100406.06;;;-5.04;66.34
15880;BME280;61999;51.514;14.614;2022-12-20T05:10:54;100416.41;;;-5.15;65.82
15880;BME280;61999;51.514;14.614;2022-12-20T05:13:23;100420.94;;;-5.46;66.10
15880;BME280;61999;51.514;14.614;2022-12-20T05:15:52;100422.66;;;-5.48;66.25
15880;BME280;61999;51.514;14.614;2022-12-20T05:18:21;100427.09;;;-5.70;66.70
15880;BME280;61999;51.514;14.614;2022-12-20T05:20:50;100433.16;;;-5.82;67.64
15880;BME280;61999;51.514;14.614;2022-12-20T05:23:39;100430.81;;;-6.25;69.17
15880;BME280;61999;51.514;14.614;2022-12-20T05:26:26;100433.38;;;-6.25;70.08
15880;BME280;61999;51.514;14.614;2022-12-20T05:28:57;100427.25;;;-5.93;69.25
15880;BME280;61999;51.514;14.614;2022-12-20T05:31:25;100429.84;;;-5.99;69.05
15880;BME280;61999;51.514;14.614;2022-12-20T05:33:53;100430.50;;;-5.66;68.69
15880;BME280;61999;51.514;14.614;2022-12-20T05:36:21;100429.03;;;-6.13;69.39
15880;BME280;61999;51.514;14.614;2022-12-20T05:38:49;100427.91;;;-5.63;69.71
15880;BME280;61999;51.514;14.614;2022-12-20T05:41:17;100429.50;;;-5.45;67.78
15880;BME280;61999;51.514;14.614;2022-12-20T05:43:45;100419.34;;;-5.65;68.33
15880;BME280;61999;51.514;14.614;2022-12-20T05:46:14;100406.34;;;-5.41;67.95
15880;BME280;61999;51.514;14.614;2022-12-20T05:48:42;100403.72;;;-5.30;67.05
15880;BME280;61999;51.514;14.614;2022-12-20T05:51:10;100407.34;;;-5.60;67.96
15880;BME280;61999;51.514;14.614;2022-12-20T05:53:38;100404.59;;;-5.37;67.67
15880;BME280;61999;51.514;14.614;2022-12-20T05:56:12;100424.22;;;-5.24;67.05
15880;BME280;61999;51.514;14.614;2022-12-20T05:58:44;100417.69;;;-5.68;67.21
15880;BME280;61999;51.514;14.614;2022-12-20T06:01:12;100420.91;;;-5.40;67.66
15880;BME280;61999;51.514;14.614;2022-12-20T06:03:41;100421.94;;;-5.64;68.07
15880;BME280;61999;51.514;14.614;2022-12-20T06:06:09;100427.69;;;-5.31;67.61
15880;BME280;61999;51.514;14.614;2022-12-20T06:08:40;100423.75;;;-5.84;67.95
15880;BME280;61999;51.514;14.614;2022-12-20T06:11:08;100424.28;;;-5.35;67.49
15880;BME280;61999;51.514;14.614;2022-12-20T06:13:36;100417.22;;;-5.08;66.43
15880;BME280;61999;51.514;14.614;2022-12-20T06:16:05;100419.00;;;-5.19;66.52
15880;BME280;61999;51.514;14.614;2022-12-20T06:18:33;100422.81;;;-5.65;67.09
15880;BME280;61999;51.514;14.614;2022-12-20T06:21:03;100425.34;;;-5.63;68.31
15880;BME280;61999;51.514;14.614;2022-12-20T06:23:31;100426.06;;;-5.43;67.82
15880;BME280;61999;51.514;14.614;2022-12-20T06:25:59;100409.03;;;-5.55;67.48
15880;BME280;61999;51.514;14.614;2022-12-20T06:28:28;100410.34;;;-5.05;66.44
15880;BME280;61999;51.514;14.614;2022-12-20T06:30:57;100414.94;;;-5.42;67.15
15880;BME280;61999;51.514;14.614;2022-12-20T06:33:25;100396.63;;;-5.02;66.91
15880;BME280;61999;51.514;14.614;2022-12-20T06:35:53;100408.94;;;-5.44;66.68
15880;BME280;61999;51.514;14.614;2022-12-20T06:38:22;100418.44;;;-5.51;67.21
15880;BME280;61999;51.514;14.614;2022-12-20T06:40:50;100401.84;;;-5.14;67.57
15880;BME280;61999;51.514;14.614;2022-12-20T06:43:19;100403.28;;;-4.86;66.50
15880;BME280;61999;51.514;14.614;2022-12-20T06:45:47;100411.53;;;-5.49;67.64
15880;BME280;61999;51.514;14.614;2022-12-20T06:48:15;100389.78;;;-5.06;67.80
15880;BME280;61999;51.514;14.614;2022-12-20T06:50:42;100390.50;;;-4.92;66.46
15880;BME280;61999;51.514;14.614;2022-12-20T06:53:12;100390.00;;;-5.31;66.82
15880;BME280;61999;51.514;14.614;2022-12-20T06:55:41;100388.38;;;-5.41;67.77
15880;BME280;61999;51.514;14.614;2022-12-20T06:58:09;100394.28;;;-5.31;67.32
15880;BME280;61999;51.514;14.614;2022-12-20T07:00:37;100402.09;;;-5.48;67.91
15880;BME280;61999;51.514;14.614;2022-12-20T07:03:06;100396.50;;;-4.90;67.57
15880;BME280;61999;51.514;14.614;2022-12-20T07:05:34;100393.69;;;-4.68;66.67
15880;BME280;61999;51.514;14.614;2022-12-20T07:08:22;100405.41;;;-4.41;66.28
15880;BME280;61999;51.514;14.614;2022-12-20T07:11:06;100411.06;;;-4.90;65.83
15880;BME280;61999;51.514;14.614;2022-12-20T07:13:35;100404.66;;;-4.54;66.36
15880;BME280;61999;51.514;14.614;2022-12-20T07:16:04;100389.53;;;-4.78;65.77
15880;BME280;61999;51.514;14.614;2022-12-20T07:18:32;100386.81;;;-4.65;66.24
15880;BME280;61999;51.514;14.614;2022-12-20T07:21:04;100399.16;;;-5.00;66.67
15880;BME280;61999;51.514;14.614;2022-12-20T07:23:32;100394.25;;;-5.27;67.48
15880;BME280;61999;51.514;14.614;2022-12-20T07:26:00;100388.88;;;-4.99;67.73
15880;BME280;61999;51.514;14.614;2022-12-20T07:28:31;100401.94;;;-5.23;68.48
15880;BME280;61999;51.514;14.614;2022-12-20T07:31:01;100398.53;;;-5.29;68.80
15880;BME280;61999;51.514;14.614;2022-12-20T07:33:29;100401.09;;;-5.24;69.31
15880;BME280;61999;51.514;14.614;2022-12-20T07:36:00;100403.94;;;-5.65;69.63
15880;BME280;61999;51.514;14.614;2022-12-20T07:38:28;100403.03;;;-5.55;69.88
15880;BME280;61999;51.514;14.614;2022-12-20T07:40:56;100409.25;;;-5.91;71.29
15880;BME280;61999;51.514;14.614;2022-12-20T07:43:24;100417.69;;;-5.73;70.85
15880;BME280;61999;51.514;14.614;2022-12-20T07:45:55;100418.50;;;-5.66;71.04
15880;BME280;61999;51.514;14.614;2022-12-20T07:48:24;100417.72;;;-5.76;71.08
15880;BME280;61999;51.514;14.614;2022-12-20T07:50:54;100401.03;;;-5.18;70.48
15880;BME280;61999;51.514;14.614;2022-12-20T07:53:26;100406.38;;;-5.44;69.60
15880;BME280;61999;51.514;14.614;2022-12-20T07:55:57;100411.38;;;-5.27;69.63
15880;BME280;61999;51.514;14.614;2022-12-20T07:58:26;100408.72;;;-5.19;70.00
15880;BME280;61999;51.514;14.614;2022-12-20T08:00:57;100400.13;;;-5.12;69.15
15880;BME280;61999;51.514;14.614;2022-12-20T08:03:30;100396.38;;;-4.81;67.99
15880;BME280;61999;51.514;14.614;2022-12-20T08:06:03;100403.22;;;-4.76;67.74
15880;BME280;61999;51.514;14.614;2022-12-20T08:08:37;100390.38;;;-4.76;68.23
15880;BME280;61999;51.514;14.614;2022-12-20T08:11:09;100387.78;;;-4.80;67.81
15880;BME280;61999;51.514;14.614;2022-12-20T08:13:38;100394.75;;;-4.88;67.46
15880;BME280;61999;51.514;14.614;2022-12-20T08:16:11;100380.72;;;-4.56;66.89
15880;BME280;61999;51.514;14.614;2022-12-20T08:18:39;100375.25;;;-4.31;66.84
15880;BME280;61999;51.514;14.614;2022-12-20T08:21:07;100389.75;;;-4.24;66.50
15880;BME280;61999;51.514;14.614;2022-12-20T08:23:36;100390.59;;;-4.24;64.90
15880;BME280;61999;51.514;14.614;2022-12-20T08:26:05;100392.50;;;-4.40;65.14
15880;BME280;61999;51.514;14.614;2022-12-20T08:28:40;100381.16;;;-4.22;65.25
15880;BME280;61999;51.514;14.614;2022-12-20T08:31:10;100386.78;;;-3.91;64.43
15880;BME280;61999;51.514;14.614;2022-12-20T08:33:39;100385.22;;;-4.04;64.62
15880;BME280;61999;51.514;14.614;2022-12-20T08:36:11;100378.31;;;-4.00;64.28
15880;BME280;61999;51.514;14.614;2022-12-20T08:38:40;100389.19;;;-4.48;65.01
15880;BME280;61999;51.514;14.614;2022-12-20T08:41:10;100382.47;;;-4.61;65.81
15880;BME280;61999;51.514;14.614;2022-12-20T08:43:40;100388.69;;;-4.79;66.07
15880;BME280;61999;51.514;14.614;2022-12-20T08:46:10;100394.06;;;-4.26;66.14
15880;BME280;61999;51.514;14.614;2022-12-20T08:48:39;100410.00;;;-4.69;65.39
15880;BME280;61999;51.514;14.614;2022-12-20T08:51:10;100402.78;;;-4.40;66.72
15880;BME280;61999;51.514;14.614;2022-12-20T08:53:39;100410.00;;;-4.69;65.71
15880;BME280;61999;51.514;14.614;2022-12-20T08:56:10;100412.88;;;-5.01;66.39
15880;BME280;61999;51.514;14.614;2022-12-20T08:58:39;100418.03;;;-5.03;67.61
15880;BME280;61999;51.514;14.614;2022-12-20T09:01:12;100417.28;;;-5.17;67.75
15880;BME280;61999;51.514;14.614;2022-12-20T09:03:42;100403.56;;;-5.13;68.81
15880;BME280;61999;51.514;14.614;2022-12-20T09:06:13;100402.38;;;-4.80;67.85
15880;BME280;61999;51.514;14.614;2022-12-20T09:08:42;100401.66;;;-4.93;67.79
15880;BME280;61999;51.514;14.614;2022-12-20T09:11:13;100399.84;;;-4.82;67.71
15880;BME280;61999;51.514;14.614;2022-12-20T09:13:43;100393.84;;;-4.85;67.17
15880;BME280;61999;51.514;14.614;2022-12-20T09:16:15;100403.94;;;-4.62;66.26
15880;BME280;61999;51.514;14.614;2022-12-20T09:18:48;100399.28;;;-5.13;67.69
15880;BME280;61999;51.514;14.614;2022-12-20T09:21:16;100421.00;;;-5.52;68.55
15880;BME280;61999;51.514;14.614;2022-12-20T09:23:45;100427.03;;;-5.56;69.63
15880;BME280;61999;51.514;14.614;2022-12-20T09:26:17;100413.91;;;-5.22;69.69
15880;BME280;61999;51.514;14.614;2022-12-20T09:28:46;100414.56;;;-4.96;68.07
15880;BME280;61999;51.514;14.614;2022-12-20T09:31:19;100418.72;;;-4.86;67.76
15880;BME280;61999;51.514;14.614;2022-12-20T09:33:51;100415.38;;;-4.94;66.85
15880;BME280;61999;51.514;14.614;2022-12-20T09:36:24;100411.47;;;-4.47;66.26
15880;BME280;61999;51.514;14.614;2022-12-20T09:38:55;100421.84;;;-4.54;66.28
15880;BME280;61999;51.514;14.614;2022-12-20T09:41:32;100399.53;;;-4.52;65.73
15880;BME280;61999;51.514;14.614;2022-12-20T09:44:13;100406.66;;;-4.03;64.17
15880;BME280;61999;51.514;14.614;2022-12-20T09:46:55;100410.56;;;-3.73;63.44
15880;BME280;61999;51.514;14.614;2022-12-20T09:49:32;100392.78;;;-3.92;63.40
15880;BME280;61999;51.514;14.614;2022-12-20T09:52:26;100407.84;;;-4.30;64.02
15880;BME280;61999;51.514;14.614;2022-12-20T09:55:12;100400.94;;;-4.28;64.74
15880;BME280;61999;51.514;14.614;2022-12-20T09:58:01;100402.53;;;-4.18;65.15
15880;BME280;61999;51.514;14.614;2022-12-20T10:00:40;100400.72;;;-4.10;64.29
15880;BME280;61999;51.514;14.614;2022-12-20T10:03:19;100419.72;;;-4.20;64.79
15880;BME280;61999;51.514;14.614;2022-12-20T10:05:52;100407.19;;;-3.78;63.79
15880;BME280;61999;51.514;14.614;2022-12-20T10:08:43;100403.13;;;-2.86;60.70
15880;BME280;61999;51.514;14.614;2022-12-20T10:11:42;100401.44;;;-3.38;60.92
15880;BME280;61999;51.514;14.614;2022-12-20T10:14:36;100390.06;;;-3.27;60.93
15880;BME280;61999;51.514;14.614;2022-12-20T10:17:16;100388.53;;;-2.87;59.89
15880;BME280;61999;51.514;14.614;2022-12-20T10:20:16;100383.63;;;-3.54;61.21
15880;BME280;61999;51.514;14.614;2022-12-20T10:22:55;100394.78;;;-3.52;61.32
15880;BME280;61999;51.514;14.614;2022-12-20T10:25:30;100379.38;;;-3.56;61.49
15880;BME280;61999;51.514;14.614;2022-12-20T10:28:03;100386.13;;;-3.48;61.47
15880;BME280;61999;51.514;14.614;2022-12-20T10:30:33;100365.94;;;-3.75;60.53
15880;BME280;61999;51.514;14.614;2022-12-20T10:33:02;100372.47;;;-3.53;59.86
15880;BME280;61999;51.514;14.614;2022-12-20T10:35:38;100368.59;;;-3.81;61.89
15880;BME280;61999;51.514;14.614;2022-12-20T10:38:11;100366.22;;;-3.97;62.12
15880;BME280;61999;51.514;14.614;2022-12-20T10:40:44;100373.47;;;-4.26;62.97
15880;BME280;61999;51.514;14.614;2022-12-20T10:43:44;100369.81;;;-4.07;62.79
15880;BME280;61999;51.514;14.614;2022-12-20T10:46:14;100377.97;;;-4.44;63.60
15880;BME280;61999;51.514;14.614;2022-12-20T10:48:45;100372.84;;;-4.45;63.59
15880;BME280;61999;51.514;14.614;2022-12-20T10:51:19;100371.06;;;-4.40;64.61
15880;BME280;61999;51.514;14.614;2022-12-20T10:53:55;100363.38;;;-4.42;64.27
15880;BME280;61999;51.514;14.614;2022-12-20T10:56:26;100374.84;;;-3.99;63.84
15880;BME280;61999;51.514;14.614;2022-12-20T10:58:57;100365.50;;;-4.05;63.35
15880;BME280;61999;51.514;14.614;2022-12-20T11:01:30;100367.56;;;-4.33;63.45
15880;BME280;61999;51.514;14.614;2022-12-20T11:04:02;100362.97;;;-4.11;63.42
15880;BME280;61999;51.514;14.614;2022-12-20T11:06:44;100362.84;;;-3.99;62.48
15880;BME280;61999;51.514;14.614;2022-12-20T11:09:24;100370.16;;;-4.35;63.59
15880;BME280;61999;51.514;14.614;2022-12-20T11:12:11;100354.84;;;-3.80;63.19
15880;BME280;61999;51.514;14.614;2022-12-20T11:14:42;100347.53;;;-4.11;62.58
15880;BME280;61999;51.514;14.614;2022-12-20T11:17:28;100349.25;;;-4.10;63.18
15880;BME280;61999;51.514;14.614;2022-12-20T11:20:27;100351.28;;;-4.37;63.17
15880;BME280;61999;51.514;14.614;2022-12-20T11:23:15;100346.47;;;-3.93;62.40
15880;BME280;61999;51.514;14.614;2022-12-20T11:26:06;100330.94;;;-3.88;60.91
15880;BME280;61999;51.514;14.614;2022-12-20T11:28:58;100327.75;;;-4.09;61.23
15880;BME280;61999;51.514;14.614;2022-12-20T11:31:46;100333.50;;;-3.87;61.52
15880;BME280;61999;51.514;14.614;2022-12-20T11:34:32;100322.47;;;-3.42;60.92
15880;BME280;61999;51.514;14.614;2022-12-20T11:37:19;100304.53;;;-3.01;59.11
15880;BME280;61999;51.514;14.614;2022-12-20T11:40:14;100311.25;;;-2.93;57.58
15880;BME280;61999;51.514;14.614;2022-12-20T11:43:01;100302.22;;;-2.71;57.31
15880;BME280;61999;51.514;14.614;2022-12-20T11:45:42;100296.31;;;-2.76;56.67
15880;BME280;61999;51.514;14.614;2022-12-20T11:48:44;100293.38;;;-3.03;57.85
15880;BME280;61999;51.514;14.614;2022-12-20T11:51:22;100275.31;;;-2.20;56.73
15880;BME280;61999;51.514;14.614;2022-12-20T11:53:57;100283.78;;;-2.14;55.95
15880;BME280;61999;51.514;14.614;2022-12-20T11:56:35;100283.91;;;-2.20;55.40
15880;BME280;61999;51.514;14.614;2022-12-20T11:59:16;100284.28;;;-1.99;54.54
15880;BME280;61999;51.514;14.614;2022-12-20T12:01:54;100282.50;;;-2.33;55.65
15880;BME280;61999;51.514;14.614;2022-12-20T12:04:28;100269.84;;;-2.06;55.84
15880;BME280;61999;51.514;14.614;2022-12-20T12:07:01;100263.41;;;-2.26;55.73
15880;BME280;61999;51.514;14.614;2022-12-20T12:09:36;100259.44;;;-2.42;55.58
15880;BME280;61999;51.514;14.614;2022-12-20T12:12:17;100246.53;;;-2.03;54.28
15880;BME280;61999;51.514;14.614;2022-12-20T12:14:54;100241.19;;;-1.27;53.12
15880;BME280;61999;51.514;14.614;2022-12-20T12:17:35;100248.38;;;-1.74;52.99
15880;BME280;61999;51.514;14.614;2022-12-20T12:20:28;100243.34;;;-1.13;52.58
15880;BME280;61999;51.514;14.614;2022-12-20T12:23:06;100251.75;;;-1.05;51.93
15880;BME280;61999;51.514;14.614;2022-12-20T12:25:39;100229.78;;;-0.90;51.72
15880;BME280;61999;51.514;14.614;2022-12-20T12:28:12;100240.47;;;-1.34;52.43
15880;BME280;61999;51.514;14.614;2022-12-20T12:30:46;100241.22;;;-0.99;51.11
15880;BME280;61999;51.514;14.614;2022-12-20T12:33:20;100242.81;;;-1.57;52.33
15880;BME280;61999;51.514;14.614;2022-12-20T12:39:28;100237.31;;;-1.45;51.84
15880;BME280;61999;51.514;14.614;2022-12-20T12:42:51;100238.81;;;-1.71;53.05
15880;BME280;61999;51.514;14.614;2022-12-20T12:45:29;100249.59;;;-2.25;53.64
15880;BME280;61999;51.514;14.614;2022-12-20T12:48:04;100249.63;;;-2.64;55.99
15880;BME280;61999;51.514;14.614;2022-12-20T12:50:39;100235.88;;;-2.27;54.70
15880;BME280;61999;51.514;14.614;2022-12-20T12:53:15;100257.84;;;-2.88;55.89
15880;BME280;61999;51.514;14.614;2022-12-20T12:55:46;100242.75;;;-3.07;56.33
15880;BME280;61999;51.514;14.614;2022-12-20T12:58:37;100227.41;;;-3.13;57.09
15880;BME280;61999;51.514;14.614;2022-12-20T13:01:11;100232.88;;;-2.86;56.59
15880;BME280;61999;51.514;14.614;2022-12-20T13:04:08;100213.00;;;-2.81;56.33
15880;BME280;61999;51.514;14.614;2022-12-20T13:07:02;100215.78;;;-2.51;55.45
15880;BME280;61999;51.514;14.614;2022-12-20T13:09:42;100210.69;;;-2.55;55.80
15880;BME280;61999;51.514;14.614;2022-12-20T13:12:54;100208.41;;;-3.09;57.05
15880;BME280;61999;51.514;14.614;2022-12-20T13:15:47;100198.88;;;-2.65;56.68
15880;BME280;61999;51.514;14.614;2022-12-20T13:18:27;100193.75;;;-1.93;55.24
15880;BME280;61999;51.514;14.614;2022-12-20T13:21:34;100202.19;;;-2.22;55.51